WetterOnline ( https://www.wetteronline.de )

Wetter aktuell Steinbach am Wald

Aktuelles Wetter: Neuhaus (851m)

6-stündlich | Neueste Meldungen
Ortszeit Temperatur Wetter
Do, 06.10. 2:00 11.6° C bewölkt
Mi, 05.10. 20:00 12.1° C wolkig
Mi, 05.10. 14:00 11.9° C wolkig
Mi, 05.10. 8:00 7.0° C wolkig
Mi, 05.10. 2:00 8.0° C wolkig
Di, 04.10. 20:00 7.9° C fast wolkenlos
Di, 04.10. 14:00 10.6° C leicht bewölkt
Di, 04.10. 8:00 6.0° C bedeckt
Ortszeit Temperatur Wetter
Do, 06.10. 5:00 11.2° C bedeckt
Do, 06.10. 4:50 11.2° C bedeckt
Do, 06.10. 4:40 11.2° C bedeckt
Do, 06.10. 4:30 11.2° C bedeckt
Do, 06.10. 4:20 11.2° C bedeckt
Do, 06.10. 4:10 11.2° C bedeckt
Do, 06.10. 4:00 11.2° C bewölkt
Do, 06.10. 3:30 11.2° C bewölkt
Do, 06.10. 3:00 11.4° C wolkig
Do, 06.10. 2:30 11.8° C bedeckt
Do, 06.10. 2:00 11.6° C bewölkt
Ortszeit Relative Feuchte Sichtweite
Do, 06.10. 2:00 92% 45 km
Mi, 05.10. 20:00 91% 40 km
Mi, 05.10. 14:00 84% 45 km
Mi, 05.10. 8:00 97% 7 km
Mi, 05.10. 2:00 90% 35 km
Di, 04.10. 20:00 87% 45 km
Di, 04.10. 14:00 70% 60 km
Di, 04.10. 8:00 97% 50 km
Ortszeit Relative Feuchte Sichtweite
Do, 06.10. 5:00 95% 26 km
Do, 06.10. 4:50 95% -
Do, 06.10. 4:40 95% -
Do, 06.10. 4:30 95% 25 km
Do, 06.10. 4:20 95% -
Do, 06.10. 4:10 95% -
Do, 06.10. 4:00 94% 30 km
Do, 06.10. 3:30 94% 35 km
Do, 06.10. 3:00 92% 35 km
Do, 06.10. 2:30 91% 50 km
Do, 06.10. 2:00 92% 45 km
Ortszeit Niederschlagsmenge Niederschlagsart
Do, 06.10. 2:00 0.0 l/m2 in 6 Std. -
Mi, 05.10. 20:00 0.0 l/m2 in 12 Std. -
Mi, 05.10. 14:00 0.0 l/m2 in 6 Std. -
Mi, 05.10. 8:00 0.0 l/m2 in 12 Std. -
Mi, 05.10. 2:00 0.0 l/m2 in 6 Std. -
Di, 04.10. 20:00 0.0 l/m2 in 12 Std. -
Di, 04.10. 14:00 0.0 l/m2 in 6 Std. -
Di, 04.10. 8:00 0.0 l/m2 in 12 Std. -
Ortszeit Niederschlagsmenge Niederschlagsart
Do, 06.10. 5:00 0.0 l/m2 in 1 Std. -
Do, 06.10. 4:50 keine Meldung -
Do, 06.10. 4:40 keine Meldung -
Do, 06.10. 4:30 0.0 l/m2 in 1 Std. -
Do, 06.10. 4:20 keine Meldung -
Do, 06.10. 4:10 keine Meldung -
Do, 06.10. 4:00 0.0 l/m2 in 1 Std. -
Do, 06.10. 3:30 0.0 l/m2 in 1 Std. -
Do, 06.10. 3:00 0.0 l/m2 in 1 Std. -
Do, 06.10. 2:30 0.0 l/m2 in 1 Std. -
Do, 06.10. 2:00 0.0 l/m2 in 1 Std. -
Ortszeit Stärke Spitze Richtung
km/h Bft. km/h Grad Sektor
Do, 06.10. 2:00 22 4 54 220° SW
Mi, 05.10. 20:00 20 4 54 190° S
Mi, 05.10. 14:00 31 5 52 210° SW
Mi, 05.10. 8:00 22 4 40 200° S
Mi, 05.10. 2:00 19 3 33 200° S
Di, 04.10. 20:00 18 3 36 190° S
Di, 04.10. 14:00 17 3 28 210° SW
Di, 04.10. 8:00 4 1 18 250° W
Ortszeit Stärke Spitze Richtung
km/h Bft. km/h Grad Sektor
Do, 06.10. 5:00 14 3 29 220° SW
Do, 06.10. 4:50 14 3 - 220° SW
Do, 06.10. 4:40 14 3 - 220° SW
Do, 06.10. 4:30 14 3 29 210° SW
Do, 06.10. 4:20 14 3 - 210° SW
Do, 06.10. 4:10 14 3 - 210° SW
Do, 06.10. 4:00 15 3 31 210° SW
Do, 06.10. 3:30 18 3 32 210° SW
Do, 06.10. 3:00 17 3 33 220° SW
Do, 06.10. 2:30 18 3 29 230° SW
Do, 06.10. 2:00 22 4 36 220° SW
Ortszeit Untergrenze Bedeckung Gattung
total tief tief mittel hoch
Do, 06.10. 2:00 540 m 7/8 7/8 - - -
Mi, 05.10. 20:00 8700 m 8/8 0/8 - - -
Mi, 05.10. 14:00 240 m 7/8 1/8 - - -
Mi, 05.10. 8:00 30 m 8/8 1/8 - - -
Mi, 05.10. 2:00 8100 m 8/8 0/8 - - -
Di, 04.10. 20:00 10500 m 1/8 0/8 - - -
Di, 04.10. 14:00 9000 m 6/8 0/8 - - -
Di, 04.10. 8:00 3600 m 8/8 8/8 - - -
Ortszeit Bedeckungsgrad in Achtel und Wolkenuntergrenze
Do, 06.10. 5:00 8(120m)
Do, 06.10. 4:50 8(120m)
Do, 06.10. 4:40 8
Do, 06.10. 4:30 8(120m) 8(480m)
Do, 06.10. 4:20 8(120m) 8(480m)
Do, 06.10. 4:10 8
Do, 06.10. 4:00 7(180m) 7(540m) 7(1080m)
Do, 06.10. 3:30 7(210m)
Do, 06.10. 3:00 2(240m) 5(390m)
Do, 06.10. 2:30 5(300m) 8(510m)
Do, 06.10. 2:00 6(540m) 7(690m)
Ortszeit Stationsdruck (hPa) Tendenz (hPa in 3 Std.)
Do, 06.10. 2:00 925 + 1,5
Mi, 05.10. 20:00 922 0,0
Mi, 05.10. 14:00 922 - 0,1
Mi, 05.10. 8:00 922 - 0,1
Mi, 05.10. 2:00 924 - 1,1
Di, 04.10. 20:00 924 0,0
Di, 04.10. 14:00 925 + 0,1
Di, 04.10. 8:00 924 - 0,5
Ortszeit Stationsdruck (hPa) Tendenz (hPa in 3 Std.)
Do, 06.10. 5:00 926 + 1,0
Do, 06.10. 4:50 926 keine Meldung
Do, 06.10. 4:40 926 keine Meldung
Do, 06.10. 4:30 925 + 1,0
Do, 06.10. 4:20 925 keine Meldung
Do, 06.10. 4:10 925 keine Meldung
Do, 06.10. 4:00 925 + 1,0
Do, 06.10. 3:30 925 + 1,4
Do, 06.10. 3:00 925 + 1,4
Do, 06.10. 2:30 925 + 1,5
Do, 06.10. 2:00 925 + 1,5
Ortszeit Schneehöhe (cm)
Do, 06.10. 2:00 0
Mi, 05.10. 20:00 0
Mi, 05.10. 14:00 0
Mi, 05.10. 8:00 0
Mi, 05.10. 2:00 0
Di, 04.10. 20:00 0
Di, 04.10. 14:00 0
Di, 04.10. 8:00 0
Ortszeit Schneehöhe (cm)
Do, 06.10. 5:00 0
Do, 06.10. 4:50 0
Do, 06.10. 4:40 0
Do, 06.10. 4:30 0
Do, 06.10. 4:20 0
Do, 06.10. 4:10 0
Do, 06.10. 4:00 0
Do, 06.10. 3:30 0
Do, 06.10. 3:00 0
Do, 06.10. 2:30 0
Do, 06.10. 2:00 0
Link zu dieser Seite / Seite empfehlen

Das Wetter in ...